Time;durP1;ratioP1;P1;durP2;ratioP2;P2;SDS_P1;SDS_P2;PMS_P1;PMS_P2;Temp;Humidity;BMP_temperature;BMP_pressure;BME280_temperature;BME280_humidity;BME280_pressure;Samples;Min_cycle;Max_cycle;Signal;HPM_P1;HPM_P2
2023/09/20 00:00:55;;;;;;;5.07;1.25;;;18.60;99.90;;;;;;5065278;28;20584;-52
2023/09/20 00:03:21;;;;;;;5.47;1.20;;;18.60;99.90;;;;;;5055121;28;20084;-52
2023/09/20 00:05:49;;;;;;;3.45;1.30;;;18.60;99.90;;;;;;5062742;28;20071;-52
2023/09/20 00:08:15;;;;;;;3.47;1.00;;;18.60;99.90;;;;;;5063232;28;20037;-51
2023/09/20 00:10:41;;;;;;;2.22;1.00;;;18.60;99.90;;;;;;5065565;28;20044;-52
2023/09/20 00:13:09;;;;;;;3.28;1.10;;;18.50;99.90;;;;;;5059342;28;20025;-49
2023/09/20 00:15:35;;;;;;;5.25;1.20;;;18.60;99.90;;;;;;5058562;28;20025;-49
2023/09/20 00:18:01;;;;;;;2.60;1.17;;;18.60;99.90;;;;;;5059414;28;20021;-49
2023/09/20 00:20:27;;;;;;;3.70;1.55;;;18.50;99.90;;;;;;5070085;28;20476;-51
2023/09/20 00:22:53;;;;;;;4.07;1.00;;;18.60;99.90;;;;;;5057222;28;20094;-49
2023/09/20 00:25:19;;;;;;;4.85;1.63;;;18.60;99.90;;;;;;5060397;28;20562;-50
2023/09/20 00:27:45;;;;;;;3.97;1.00;;;18.60;99.90;;;;;;5056621;28;20029;-50
2023/09/20 00:30:14;;;;;;;4.70;1.10;;;18.60;99.90;;;;;;5056326;28;20178;-49
2023/09/20 00:32:40;;;;;;;6.20;1.10;;;18.60;99.90;;;;;;5073520;28;20036;-49
2023/09/20 00:35:12;;;;;;;5.10;1.55;;;18.60;99.90;;;;;;5064638;28;20052;-50
2023/09/20 00:37:40;;;;;;;2.33;1.00;;;18.60;99.90;;;;;;5062301;28;20389;-49
2023/09/20 00:40:21;;;;;;;1.73;0.80;;;18.60;99.90;;;;;;5061422;28;20043;-51
2023/09/20 00:42:50;;;;;;;3.50;0.90;;;18.60;99.90;;;;;;5065432;28;20036;-49
2023/09/20 00:45:18;;;;;;;2.45;1.08;;;18.60;99.90;;;;;;5058854;28;20068;-52
2023/09/20 00:47:47;;;;;;;2.05;1.00;;;18.60;99.90;;;;;;5065057;28;20040;-52
2023/09/20 00:50:14;;;;;;;2.53;0.95;;;18.60;99.90;;;;;;5065372;28;20343;-50
2023/09/20 00:52:53;;;;;;;4.20;0.90;;;18.60;99.90;;;;;;5053384;28;20279;-49
2023/09/20 00:55:23;;;;;;;4.25;1.00;;;18.60;99.90;;;;;;5061368;28;20046;-51
2023/09/20 00:57:53;;;;;;;3.83;1.20;;;18.60;99.90;;;;;;5060844;28;20473;-51
2023/09/20 01:00:29;;;;;;;3.08;0.90;;;18.60;99.90;;;;;;5060912;28;20503;-53
2023/09/20 01:02:57;;;;;;;1.67;0.88;;;18.60;99.90;;;;;;5036500;28;20071;-54
2023/09/20 01:05:25;;;;;;;2.47;1.00;;;18.50;99.90;;;;;;5054434;28;20123;-52
2023/09/20 01:07:54;;;;;;;1.80;1.02;;;18.50;99.90;;;;;;5054056;28;20475;-54
2023/09/20 01:10:23;;;;;;;2.80;0.85;;;18.50;99.90;;;;;;5064874;28;20042;-52
2023/09/20 01:12:54;;;;;;;3.42;1.17;;;18.50;99.90;;;;;;5073013;28;20465;-52
2023/09/20 01:15:21;;;;;;;4.82;1.40;;;18.40;99.90;;;;;;5057239;28;20021;-53
2023/09/20 01:17:58;;;;;;;6.00;1.15;;;18.40;99.90;;;;;;5069245;28;20036;-50
2023/09/20 01:20:25;;;;;;;1.58;0.82;;;18.40;99.90;;;;;;5068237;28;20111;-53
2023/09/20 01:22:55;;;;;;;3.40;0.98;;;18.30;99.90;;;;;;5054894;28;20444;-52
2023/09/20 01:25:22;;;;;;;1.70;0.88;;;18.30;99.90;;;;;;5056219;28;20443;-52
2023/09/20 01:27:50;;;;;;;3.17;1.05;;;18.30;99.90;;;;;;5062948;28;20028;-51
2023/09/20 01:30:16;;;;;;;4.85;1.30;;;18.30;99.90;;;;;;5056111;28;20060;-50
2023/09/20 01:32:42;;;;;;;4.20;0.88;;;18.30;99.90;;;;;;5055566;28;20082;-53
2023/09/20 01:35:09;;;;;;;5.72;1.25;;;18.30;99.90;;;;;;5063195;28;20112;-55
2023/09/20 01:37:36;;;;;;;2.83;1.20;;;18.30;99.90;;;;;;5058004;28;20040;-53
2023/09/20 01:40:05;;;;;;;5.28;1.20;;;18.20;99.90;;;;;;5061024;28;20043;-50
2023/09/20 01:42:31;;;;;;;2.42;1.00;;;18.20;99.90;;;;;;5058245;28;20119;-49
2023/09/20 01:44:57;;;;;;;3.30;0.90;;;18.20;99.90;;;;;;5064029;28;20049;-53
2023/09/20 01:47:23;;;;;;;2.72;1.10;;;18.20;99.90;;;;;;5063889;28;20033;-50
2023/09/20 01:49:49;;;;;;;2.95;1.00;;;18.10;99.90;;;;;;5058529;28;20025;-51
2023/09/20 01:52:15;;;;;;;4.78;1.27;;;18.10;99.90;;;;;;5069902;28;20476;-52
2023/09/20 01:54:42;;;;;;;2.95;0.98;;;18.00;99.90;;;;;;5063682;28;20039;-53
2023/09/20 01:57:08;;;;;;;5.50;1.05;;;18.00;99.90;;;;;;5063843;28;20021;-52
2023/09/20 01:59:33;;;;;;;3.70;0.90;;;18.00;99.90;;;;;;5061492;28;20052;-51
2023/09/20 02:02:00;;;;;;;3.28;1.20;;;18.00;99.90;;;;;;5055204;28;20406;-51
2023/09/20 02:04:25;;;;;;;5.22;1.40;;;18.00;99.90;;;;;;5063672;28;20102;-52
2023/09/20 02:06:51;;;;;;;4.57;1.55;;;17.90;99.90;;;;;;5059909;28;20033;-50
2023/09/20 02:09:18;;;;;;;3.80;1.25;;;17.90;99.90;;;;;;5060575;28;20369;-50
2023/09/20 02:11:44;;;;;;;2.35;0.90;;;17.90;99.90;;;;;;5053298;28;20173;-54
2023/09/20 02:14:11;;;;;;;1.92;0.98;;;17.90;99.90;;;;;;5061673;28;20024;-51
2023/09/20 02:16:38;;;;;;;2.65;0.98;;;17.80;99.90;;;;;;5059717;28;20029;-51
2023/09/20 02:19:06;;;;;;;2.10;0.90;;;17.80;99.90;;;;;;5055054;28;20504;-51
2023/09/20 02:21:33;;;;;;;4.55;1.38;;;17.80;99.90;;;;;;5054032;28;20142;-50
2023/09/20 02:23:59;;;;;;;3.50;1.08;;;17.80;99.90;;;;;;5067652;28;20067;-50
2023/09/20 02:26:27;;;;;;;1.77;0.88;;;17.80;99.90;;;;;;5071810;28;20337;-52
2023/09/20 02:28:54;;;;;;;3.65;1.10;;;17.80;99.90;;;;;;5063130;28;20215;-51
2023/09/20 02:31:19;;;;;;;4.15;1.00;;;17.70;99.90;;;;;;5040421;28;20016;-53
2023/09/20 02:33:45;;;;;;;4.45;1.05;;;17.80;99.90;;;;;;5053551;28;20380;-51
2023/09/20 02:36:11;;;;;;;4.63;1.15;;;17.70;99.90;;;;;;5060912;28;20041;-53
2023/09/20 02:38:37;;;;;;;6.85;1.35;;;17.70;99.90;;;;;;5061662;28;20056;-50
2023/09/20 02:41:03;;;;;;;2.58;1.30;;;17.70;99.90;;;;;;5057037;28;20052;-51
2023/09/20 02:43:30;;;;;;;4.68;1.45;;;17.60;99.90;;;;;;5061440;28;20025;-52
2023/09/20 02:45:59;;;;;;;2.92;1.23;;;17.60;99.90;;;;;;5057791;28;20055;-52
2023/09/20 02:48:26;;;;;;;3.30;1.27;;;17.60;99.90;;;;;;5064691;28;20044;-54
2023/09/20 02:50:52;;;;;;;4.22;0.93;;;17.60;99.90;;;;;;5055763;28;20024;-54
2023/09/20 02:53:18;;;;;;;3.67;1.20;;;17.50;99.90;;;;;;5062117;28;20044;-52
2023/09/20 02:55:45;;;;;;;4.10;1.48;;;17.50;99.90;;;;;;5059693;28;20378;-50
2023/09/20 02:58:10;;;;;;;4.57;1.48;;;17.50;99.90;;;;;;5058617;28;20040;-51
2023/09/20 03:00:46;;;;;;;2.67;1.10;;;17.40;99.90;;;;;;5053300;28;20036;-52
2023/09/20 03:03:15;;;;;;;7.82;1.40;;;17.40;99.90;;;;;;5058834;28;20036;-52
2023/09/20 03:05:42;;;;;;;3.83;1.38;;;17.40;99.90;;;;;;5051426;28;20105;-50
2023/09/20 03:08:13;;;;;;;2.97;1.00;;;17.40;99.90;;;;;;5059885;28;20021;-50
2023/09/20 03:10:43;;;;;;;6.28;1.30;;;17.40;99.90;;;;;;5056138;28;20092;-51
2023/09/20 03:13:17;;;;;;;3.90;1.33;;;17.30;99.90;;;;;;5055044;28;20021;-51
2023/09/20 03:15:43;;;;;;;5.97;1.27;;;17.30;99.90;;;;;;5051164;28;20035;-51
2023/09/20 03:18:13;;;;;;;4.15;1.42;;;17.30;99.90;;;;;;5062300;28;20028;-51
2023/09/20 03:20:43;;;;;;;5.63;1.70;;;17.30;99.90;;;;;;5058503;28;20481;-51
2023/09/20 03:23:09;;;;;;;;;;;17.30;99.90;;;;;;5058475;28;20040;-50
2023/09/20 03:25:37;;;;;;;6.45;1.60;;;17.30;99.90;;;;;;5053077;28;20028;-48
2023/09/20 03:28:09;;;;;;;4.43;1.00;;;17.20;99.90;;;;;;5064177;28;20441;-52
2023/09/20 03:30:39;;;;;;;4.28;1.20;;;17.30;99.90;;;;;;5068983;28;20043;-51
2023/09/20 03:33:07;;;;;;;2.42;1.05;;;17.20;99.90;;;;;;5066486;28;20028;-53
2023/09/20 03:35:33;;;;;;;3.63;1.02;;;17.20;99.90;;;;;;5063980;28;20096;-51
2023/09/20 03:38:01;;;;;;;3.90;1.20;;;17.20;99.90;;;;;;5063355;28;20449;-52
2023/09/20 03:40:28;;;;;;;5.00;1.25;;;17.20;99.90;;;;;;5054946;28;20107;-49
2023/09/20 03:42:54;;;;;;;3.63;1.30;;;17.20;99.90;;;;;;5046954;28;20681;-52
2023/09/20 03:45:21;;;;;;;2.97;1.35;;;17.20;99.90;;;;;;5057610;28;20056;-49
2023/09/20 03:47:56;;;;;;;6.63;1.40;;;17.10;99.90;;;;;;5052795;28;20101;-52
2023/09/20 03:50:23;;;;;;;4.90;1.33;;;17.20;99.90;;;;;;5063511;28;20388;-53
2023/09/20 03:52:49;;;;;;;4.25;1.38;;;17.10;99.90;;;;;;5055332;28;20094;-50
2023/09/20 03:55:16;;;;;;;2.80;1.40;;;17.00;99.90;;;;;;5065279;28;20037;-49
2023/09/20 03:57:42;;;;;;;2.85;1.33;;;17.00;99.90;;;;;;5033832;28;20028;-52
2023/09/20 04:00:11;;;;;;;5.15;1.30;;;17.00;99.90;;;;;;5062820;28;20396;-51
2023/09/20 04:02:43;;;;;;;2.97;1.45;;;17.00;99.90;;;;;;5057602;28;20040;-52
2023/09/20 04:05:16;;;;;;;4.30;1.30;;;17.00;99.90;;;;;;5070288;28;20064;-50
2023/09/20 04:07:44;;;;;;;4.43;1.80;;;16.90;99.90;;;;;;5062683;28;20021;-49
2023/09/20 04:10:12;;;;;;;3.88;1.27;;;16.90;99.90;;;;;;5054015;28;20115;-53
2023/09/20 04:12:38;;;;;;;3.97;1.30;;;16.90;99.90;;;;;;5051171;28;20452;-49
2023/09/20 04:15:05;;;;;;;5.47;1.05;;;16.90;99.90;;;;;;5057588;28;20063;-52
2023/09/20 04:17:35;;;;;;;5.47;1.58;;;16.80;99.90;;;;;;5051191;28;20032;-51
2023/09/20 04:20:11;;;;;;;4.78;1.38;;;16.90;99.90;;;;;;5064648;28;20112;-53
2023/09/20 04:22:37;;;;;;;4.28;1.50;;;16.90;99.90;;;;;;5064929;28;20029;-50
2023/09/20 04:25:05;;;;;;;3.83;1.30;;;16.80;99.90;;;;;;5049797;28;20036;-49
2023/09/20 04:27:35;;;;;;;4.18;1.55;;;16.80;99.90;;;;;;5050827;28;20035;-50
2023/09/20 04:30:01;;;;;;;3.78;1.40;;;16.80;99.90;;;;;;5055613;28;20044;-53
2023/09/20 04:32:29;;;;;;;3.97;1.30;;;16.80;99.90;;;;;;5050019;28;20024;-53
2023/09/20 04:34:56;;;;;;;3.55;1.33;;;16.80;99.90;;;;;;5049733;28;20017;-53
2023/09/20 04:37:25;;;;;;;7.50;1.70;;;16.80;99.90;;;;;;5062821;28;20607;-53
2023/09/20 04:39:51;;;;;;;4.60;1.50;;;16.80;99.90;;;;;;5058899;28;20021;-52
2023/09/20 04:42:18;;;;;;;2.58;1.20;;;16.80;99.90;;;;;;5062655;28;20063;-50
2023/09/20 04:44:44;;;;;;;4.38;1.50;;;16.70;99.90;;;;;;5058045;28;20412;-55
2023/09/20 04:47:10;;;;;;;4.85;1.67;;;16.70;99.90;;;;;;5065072;28;20505;-55
2023/09/20 04:49:37;;;;;;;3.95;1.30;;;16.70;99.90;;;;;;5048747;28;20363;-55
2023/09/20 04:52:05;;;;;;;5.55;1.85;;;16.70;99.90;;;;;;5046915;28;20458;-56
2023/09/20 04:54:33;;;;;;;6.00;1.63;;;16.70;99.90;;;;;;5033197;28;20251;-54
2023/09/20 04:57:04;;;;;;;4.13;1.45;;;16.60;99.90;;;;;;5061926;28;20046;-51
2023/09/20 04:59:31;;;;;;;5.43;1.52;;;16.70;99.90;;;;;;5050654;28;20029;-53
2023/09/20 05:01:56;;;;;;;5.70;1.95;;;16.70;99.90;;;;;;5063309;28;20448;-51
2023/09/20 05:04:22;;;;;;;3.67;1.30;;;16.60;99.90;;;;;;5059964;28;20033;-52
2023/09/20 05:06:48;;;;;;;7.30;2.80;;;16.50;99.90;;;;;;5061108;28;20036;-49
2023/09/20 05:09:14;;;;;;;5.38;2.42;;;16.50;99.90;;;;;;5047921;28;20117;-49
2023/09/20 05:11:39;;;;;;;8.32;3.47;;;16.50;99.90;;;;;;5056501;28;20021;-51
2023/09/20 05:14:05;;;;;;;7.57;2.78;;;16.50;99.90;;;;;;5065948;28;20032;-52
2023/09/20 05:16:32;;;;;;;2.42;1.40;;;16.50;99.90;;;;;;5061310;28;20069;-54
2023/09/20 05:18:58;;;;;;;7.50;3.38;;;16.50;99.90;;;;;;5059339;28;20055;-50
2023/09/20 05:21:23;;;;;;;6.72;2.42;;;16.50;99.90;;;;;;5055852;28;20457;-53
2023/09/20 05:23:49;;;;;;;7.68;4.22;;;16.40;99.90;;;;;;5057155;28;20512;-52
2023/09/20 05:26:15;;;;;;;4.07;1.70;;;16.40;99.90;;;;;;5058223;28;20036;-52
2023/09/20 05:28:40;;;;;;;5.07;1.70;;;16.40;99.90;;;;;;5065802;28;20195;-49
2023/09/20 05:31:06;;;;;;;6.80;2.70;;;16.50;99.90;;;;;;5051587;28;20410;-52
2023/09/20 05:33:32;;;;;;;3.63;1.70;;;16.50;99.90;;;;;;5061601;28;20111;-52
2023/09/20 05:35:58;;;;;;;2.92;1.67;;;16.50;99.90;;;;;;5052861;28;20040;-52
2023/09/20 05:38:25;;;;;;;10.32;3.30;;;16.50;99.90;;;;;;5068949;28;20016;-50
2023/09/20 05:40:50;;;;;;;7.10;2.20;;;16.50;99.90;;;;;;5068842;28;20040;-52
2023/09/20 05:43:16;;;;;;;6.38;2.20;;;16.50;99.90;;;;;;5060706;28;20044;-49
2023/09/20 05:45:42;;;;;;;6.47;1.83;;;16.50;99.90;;;;;;5071292;28;20027;-51
2023/09/20 05:48:12;;;;;;;2.88;1.23;;;16.50;99.90;;;;;;5068326;28;20499;-50
2023/09/20 05:50:38;;;;;;;5.82;2.08;;;16.50;99.90;;;;;;5059494;28;20064;-50
2023/09/20 05:53:06;;;;;;;8.40;3.05;;;16.50;99.90;;;;;;5058115;28;20051;-52
2023/09/20 05:55:39;;;;;;;5.67;1.97;;;16.50;99.90;;;;;;5063338;28;20039;-48
2023/09/20 05:58:06;;;;;;;5.00;1.50;;;16.60;99.90;;;;;;5060282;28;20581;-49
2023/09/20 06:00:33;;;;;;;6.55;1.50;;;16.60;99.90;;;;;;5063461;28;20032;-52
2023/09/20 06:02:59;;;;;;;5.40;1.52;;;16.50;99.90;;;;;;5055320;28;20119;-52
2023/09/20 06:05:25;;;;;;;3.92;1.60;;;16.60;99.90;;;;;;5066282;28;20107;-49
2023/09/20 06:07:53;;;;;;;7.75;2.20;;;16.60;99.90;;;;;;5051686;28;20037;-48
2023/09/20 06:10:19;;;;;;;4.25;1.60;;;16.60;99.90;;;;;;5062267;28;20115;-48
2023/09/20 06:12:46;;;;;;;5.90;2.05;;;16.70;99.90;;;;;;5056247;28;20029;-49
2023/09/20 06:15:14;;;;;;;4.15;1.40;;;16.80;99.90;;;;;;5057604;28;20029;-51
2023/09/20 06:17:42;;;;;;;5.93;1.50;;;16.90;99.90;;;;;;5065234;28;20036;-53
2023/09/20 06:20:12;;;;;;;3.08;1.45;;;16.90;99.90;;;;;;5070854;28;20115;-50
2023/09/20 06:22:37;;;;;;;;;;;16.90;99.90;;;;;;5063530;28;20108;-48
2023/09/20 06:25:05;;;;;;;6.03;1.73;;;17.00;99.90;;;;;;5070692;28;20398;-51
2023/09/20 06:27:31;;;;;;;3.92;1.70;;;17.00;99.90;;;;;;5061091;28;20037;-50
2023/09/20 06:29:57;;;;;;;4.38;1.77;;;17.00;99.90;;;;;;5052039;28;20033;-53
2023/09/20 06:32:23;;;;;;;3.55;1.60;;;17.20;99.90;;;;;;5051846;28;20493;-54
2023/09/20 06:34:49;;;;;;;5.05;1.58;;;17.20;99.90;;;;;;5061333;28;20047;-50
2023/09/20 06:37:15;;;;;;;3.38;1.45;;;17.30;99.90;;;;;;5060339;28;20486;-50
2023/09/20 06:39:44;;;;;;;5.15;1.65;;;17.30;99.90;;;;;;5060669;28;20029;-52
2023/09/20 06:42:13;;;;;;;;;;;17.20;99.90;;;;;;5063230;28;20037;-49
2023/09/20 06:44:38;;;;;;;;;;;17.20;99.90;;;;;;5059526;28;19909;-50
2023/09/20 06:47:05;;;;;;;4.70;2.15;;;17.30;99.90;;;;;;5070984;28;20379;-48
2023/09/20 06:49:31;;;;;;;4.63;1.50;;;17.30;99.90;;;;;;5066986;28;20024;-54
2023/09/20 06:52:01;;;;;;;6.70;2.22;;;17.20;99.90;;;;;;5054956;28;20020;-52
2023/09/20 06:54:28;;;;;;;3.38;1.40;;;17.20;99.90;;;;;;5049712;28;20029;-52
2023/09/20 06:56:54;;;;;;;3.92;1.38;;;17.20;99.90;;;;;;5049474;28;20501;-53
2023/09/20 06:59:20;;;;;;;5.22;1.90;;;17.20;99.90;;;;;;5049003;28;20120;-52
2023/09/20 07:01:47;;;;;;;3.15;1.77;;;17.20;99.90;;;;;;5056825;28;20111;-52
2023/09/20 07:04:13;;;;;;;8.35;2.70;;;17.20;99.90;;;;;;5059648;28;20100;-55
2023/09/20 07:06:38;;;;;;;7.65;2.80;;;17.30;99.90;;;;;;5060445;28;20115;-54
2023/09/20 07:09:05;;;;;;;4.65;2.00;;;17.30;99.90;;;;;;5056405;28;20366;-51
2023/09/20 07:11:31;;;;;;;3.75;1.42;;;17.30;99.90;;;;;;5066162;28;20033;-54
2023/09/20 07:13:59;;;;;;;6.72;2.72;;;17.40;99.90;;;;;;5066610;28;20040;-52
2023/09/20 07:16:25;;;;;;;3.65;1.90;;;17.40;99.90;;;;;;5049343;28;20131;-54
2023/09/20 07:18:51;;;;;;;4.90;1.35;;;17.40;99.90;;;;;;5048780;28;20051;-55
2023/09/20 07:21:17;;;;;;;6.30;1.70;;;17.40;99.90;;;;;;5056948;28;20405;-55
2023/09/20 07:23:42;;;;;;;5.57;1.60;;;17.50;99.90;;;;;;5057919;28;20780;-53
2023/09/20 07:26:08;;;;;;;4.93;1.45;;;17.50;99.90;;;;;;5069309;28;20572;-54
2023/09/20 07:28:36;;;;;;;5.78;1.65;;;17.50;99.90;;;;;;5069148;28;20028;-55
2023/09/20 07:31:03;;;;;;;6.45;2.15;;;17.50;99.90;;;;;;5060617;28;20106;-51
2023/09/20 07:33:29;;;;;;;3.35;1.45;;;17.60;99.90;;;;;;5063057;28;20021;-51
2023/09/20 07:36:01;;;;;;;1.60;1.20;;;17.60;99.90;;;;;;5058339;28;20151;-52
2023/09/20 07:38:28;;;;;;;2.88;1.33;;;17.70;99.90;;;;;;5068642;28;20435;-55
2023/09/20 07:41:09;;;;;;;4.13;1.20;;;17.70;99.90;;;;;;5060268;28;20033;-50
2023/09/20 07:43:38;;;;;;;3.03;1.40;;;17.60;99.90;;;;;;5064339;28;20461;-50
2023/09/20 07:46:07;;;;;;;3.13;1.58;;;17.60;99.90;;;;;;5057084;28;20070;-49
2023/09/20 07:48:34;;;;;;;3.75;1.30;;;17.60;99.90;;;;;;5064782;28;20024;-48
2023/09/20 07:51:01;;;;;;;3.08;1.15;;;17.60;99.90;;;;;;5057716;28;20146;-52
2023/09/20 07:53:28;;;;;;;4.63;1.33;;;17.70;99.90;;;;;;5054175;28;20067;-50
2023/09/20 07:56:00;;;;;;;2.70;1.23;;;17.70;99.90;;;;;;5050969;28;20090;-48
2023/09/20 07:58:26;;;;;;;6.15;2.25;;;17.80;99.90;;;;;;5051060;28;20605;-53
2023/09/20 08:00:56;;;;;;;3.53;1.52;;;17.90;99.90;;;;;;5050729;28;20029;-48
2023/09/20 08:03:22;;;;;;;2.97;1.35;;;18.00;99.90;;;;;;5051016;28;20037;-49
2023/09/20 08:05:52;;;;;;;4.32;1.88;;;18.00;99.90;;;;;;5050801;28;20033;-53
2023/09/20 08:08:18;;;;;;;4.53;1.77;;;18.10;99.90;;;;;;5049580;28;20040;-50
2023/09/20 08:10:44;;;;;;;3.38;1.48;;;18.20;99.90;;;;;;5050439;28;20037;-49
2023/09/20 08:13:11;;;;;;;2.08;0.95;;;18.30;99.90;;;;;;5050964;28;20033;-51
2023/09/20 08:15:42;;;;;;;5.00;1.17;;;18.40;99.90;;;;;;5050745;28;20047;-49
2023/09/20 08:20:55;;;;;;;4.43;1.30;;;18.70;99.90;;;;;;5050715;28;20041;-50
2023/09/20 09:02:14;;;;;;;;;;;19.10;99.90;;;;;;5054562;28;20512;-52
2023/09/20 09:04:49;;;;;;;3.88;1.42;;;19.10;99.90;;;;;;5052866;28;19909;-53
2023/09/20 09:07:18;;;;;;;5.50;1.60;;;19.10;99.90;;;;;;5054137;28;20519;-51
2023/09/20 09:09:46;;;;;;;3.97;1.65;;;19.20;99.90;;;;;;5053623;28;20037;-55
2023/09/20 09:12:12;;;;;;;2.90;1.10;;;19.20;99.90;;;;;;5054118;28;20032;-50
2023/09/20 09:14:39;;;;;;;3.22;1.25;;;19.30;99.90;;;;;;5053987;28;20431;-49
2023/09/20 09:17:07;;;;;;;4.28;1.30;;;19.30;99.90;;;;;;5053960;28;20104;-53
2023/09/20 09:19:33;;;;;;;2.20;1.10;;;19.30;99.90;;;;;;5053684;28;20028;-52
2023/09/20 09:22:00;;;;;;;5.75;1.30;;;19.40;99.90;;;;;;5054155;28;20037;-52
2023/09/20 09:24:45;;;;;;;4.65;1.20;;;19.50;99.90;;;;;;5053972;28;20497;-50
2023/09/20 09:27:11;;;;;;;2.20;0.98;;;19.50;99.90;;;;;;5053996;28;20033;-52
2023/09/20 09:29:37;;;;;;;3.05;1.75;;;19.60;99.90;;;;;;5053336;28;20040;-55
2023/09/20 09:32:04;;;;;;;5.28;1.35;;;19.70;99.90;;;;;;5053831;28;20017;-54
2023/09/20 09:34:30;;;;;;;5.13;1.02;;;19.70;99.90;;;;;;5053718;28;20033;-54
2023/09/20 09:36:57;;;;;;;2.88;1.08;;;19.70;99.90;;;;;;5053435;28;20059;-53
2023/09/20 09:39:25;;;;;;;4.05;1.55;;;19.70;99.90;;;;;;5052967;28;20476;-54
2023/09/20 09:41:51;;;;;;;2.97;1.23;;;19.70;99.90;;;;;;5053521;28;20123;-54
2023/09/20 09:44:17;;;;;;;3.30;1.20;;;19.70;99.90;;;;;;5053428;28;20032;-49
2023/09/20 09:46:43;;;;;;;3.33;1.30;;;19.80;99.90;;;;;;5053543;28;20094;-54
2023/09/20 09:49:11;;;;;;;2.85;1.17;;;19.90;99.90;;;;;;5052709;28;20104;-48
2023/09/20 09:51:53;;;;;;;3.57;1.13;;;20.20;99.90;;;;;;5053860;28;20359;-55
2023/09/20 09:54:21;;;;;;;2.63;0.90;;;20.30;99.90;;;;;;5053217;28;20427;-54
2023/09/20 09:56:47;;;;;;;4.60;0.95;;;20.40;99.90;;;;;;5053182;28;20025;-54
2023/09/20 09:59:13;;;;;;;2.42;1.25;;;20.50;99.90;;;;;;5052054;28;20171;-52
2023/09/20 10:01:40;;;;;;;2.95;1.20;;;20.50;99.90;;;;;;5053535;28;20317;-53
2023/09/20 10:04:12;;;;;;;4.35;1.27;;;20.60;99.90;;;;;;5053028;28;20021;-51
2023/09/20 10:06:53;;;;;;;3.97;1.27;;;20.70;99.90;;;;;;5052951;28;20025;-55
2023/09/20 10:09:27;;;;;;;2.70;0.98;;;20.80;99.90;;;;;;5052421;28;20110;-55
2023/09/20 10:11:53;;;;;;;2.58;0.93;;;21.10;99.90;;;;;;5052866;28;20029;-53
2023/09/20 10:14:22;;;;;;;3.22;1.42;;;21.40;99.90;;;;;;5052727;28;20021;-49
2023/09/20 10:16:48;;;;;;;2.72;0.80;;;21.70;99.90;;;;;;5052751;28;20029;-53
2023/09/20 10:19:15;;;;;;;2.70;0.93;;;22.20;99.90;;;;;;5052262;28;20553;-53
2023/09/20 10:22:09;;;;;;;3.35;1.45;;;22.80;99.90;;;;;;5052706;28;20025;-49
2023/09/20 10:25:04;;;;;;;5.25;1.45;;;23.10;99.90;;;;;;5053051;28;20037;-52
2023/09/20 10:27:31;;;;;;;3.08;1.20;;;23.10;99.90;;;;;;5052645;28;20104;-53
2023/09/20 10:30:09;;;;;;;3.05;1.02;;;23.00;99.90;;;;;;5052157;28;20397;-54
2023/09/20 10:32:56;;;;;;;3.15;1.00;;;23.00;99.90;;;;;;5052569;28;20025;-53
2023/09/20 10:35:27;;;;;;;2.50;0.90;;;22.90;99.90;;;;;;5052555;28;20091;-52
2023/09/20 10:38:08;;;;;;;2.17;1.00;;;23.40;99.90;;;;;;5052393;28;20123;-51
2023/09/20 10:40:46;;;;;;;2.03;0.88;;;23.90;99.90;;;;;;5052391;28;20371;-53
2023/09/20 10:43:13;;;;;;;;;;;24.20;99.90;;;;;;5053248;28;20067;-50
2023/09/20 10:45:39;;;;;;;2.40;0.90;;;24.50;99.90;;;;;;5052176;28;19956;-52
2023/09/20 10:48:12;;;;;;;2.35;0.95;;;24.40;99.90;;;;;;5051004;28;20021;-52
2023/09/20 10:50:59;;;;;;;4.93;1.08;;;24.10;99.90;;;;;;5051582;28;20032;-51
2023/09/20 10:53:50;;;;;;;3.53;0.75;;;24.00;99.90;;;;;;5052015;28;20028;-50
2023/09/20 10:56:54;;;;;;;3.22;1.10;;;23.80;99.90;;;;;;5052221;28;20078;-49
2023/09/20 10:59:21;;;;;;;1.67;0.90;;;23.60;99.90;;;;;;5051504;28;20040;-53
2023/09/20 11:01:56;;;;;;;2.05;0.88;;;23.40;99.90;;;;;;5051940;28;20021;-54
2023/09/20 11:04:24;;;;;;;3.58;1.00;;;23.20;99.90;;;;;;5050549;28;20075;-54
2023/09/20 11:06:54;;;;;;;5.97;1.02;;;23.20;99.90;;;;;;5052203;28;20025;-51
2023/09/20 11:09:22;;;;;;;5.60;1.17;;;23.30;99.90;;;;;;5050959;28;20400;-54
2023/09/20 11:11:48;;;;;;;2.30;0.80;;;23.20;99.90;;;;;;5051289;28;20040;-50
2023/09/20 11:14:13;;;;;;;1.33;0.70;;;23.20;99.90;;;;;;5051696;28;20478;-54
2023/09/20 11:16:41;;;;;;;1.05;0.65;;;23.40;99.90;;;;;;5051574;28;20028;-53
2023/09/20 11:19:16;;;;;;;2.03;0.70;;;23.40;99.90;;;;;;5049888;28;20519;-52
2023/09/20 11:21:42;;;;;;;1.52;0.80;;;23.20;99.90;;;;;;5051862;28;20040;-50
2023/09/20 11:24:10;;;;;;;1.90;0.80;;;23.20;99.90;;;;;;5051637;28;20029;-54
2023/09/20 11:26:39;;;;;;;2.78;0.90;;;23.20;99.90;;;;;;5051607;28;20021;-52
2023/09/20 11:29:05;;;;;;;3.55;0.90;;;23.30;99.90;;;;;;5050882;28;20072;-52
2023/09/20 11:31:35;;;;;;;2.50;1.05;;;23.30;99.90;;;;;;5051455;28;20052;-54
2023/09/20 11:34:03;;;;;;;2.00;0.68;;;23.30;99.90;;;;;;5050065;28;20074;-54
2023/09/20 11:36:38;;;;;;;1.65;0.80;;;23.20;99.90;;;;;;5051446;28;20051;-53
2023/09/20 11:39:05;;;;;;;1.23;0.75;;;23.10;99.90;;;;;;5050878;28;20421;-52
2023/09/20 11:41:32;;;;;;;1.92;0.80;;;23.10;99.90;;;;;;5051497;28;20033;-51
2023/09/20 11:43:58;;;;;;;2.10;0.95;;;23.10;99.90;;;;;;5051141;28;20036;-52
2023/09/20 11:46:33;;;;;;;1.10;0.70;;;23.20;99.90;;;;;;5051142;28;20056;-49
2023/09/20 11:49:00;;;;;;;2.63;0.80;;;23.30;99.90;;;;;;5050529;28;20040;-48
2023/09/20 11:51:28;;;;;;;1.17;0.65;;;23.30;99.90;;;;;;5050908;28;20036;-49
2023/09/20 11:53:55;;;;;;;1.55;0.80;;;23.40;99.90;;;;;;5051081;28;20107;-54
2023/09/20 11:56:25;;;;;;;2.42;0.70;;;23.40;99.90;;;;;;5050726;28;20032;-52
2023/09/20 11:58:54;;;;;;;1.33;0.63;;;23.40;99.90;;;;;;5050728;28;20032;-48
2023/09/20 12:01:24;;;;;;;1.10;0.70;;;23.50;99.90;;;;;;5050969;28;20469;-52
2023/09/20 12:03:51;;;;;;;3.97;1.83;;;23.80;99.90;;;;;;5051130;28;20112;-49
2023/09/20 12:06:18;;;;;;;1.42;0.80;;;24.00;99.90;;;;;;5051078;28;20481;-47
2023/09/20 12:08:44;;;;;;;2.65;0.82;;;24.10;99.90;;;;;;5050563;28;20413;-51
2023/09/20 12:11:10;;;;;;;1.35;0.80;;;23.90;99.90;;;;;;5050576;28;20025;-49
2023/09/20 12:13:35;;;;;;;1.52;0.70;;;23.60;99.90;;;;;;5051091;28;20033;-51
2023/09/20 12:16:01;;;;;;;2.85;1.00;;;23.40;99.90;;;;;;5051046;28;20048;-53
2023/09/20 12:18:27;;;;;;;1.50;1.02;;;23.50;99.90;;;;;;5050674;28;20120;-50
2023/09/20 12:20:53;;;;;;;3.65;0.73;;;23.70;99.90;;;;;;5050710;28;20039;-53
2023/09/20 12:23:18;;;;;;;1.80;0.77;;;23.60;99.90;;;;;;5051043;28;20025;-52
2023/09/20 12:25:44;;;;;;;3.13;0.95;;;23.50;99.90;;;;;;5051041;28;20478;-48
2023/09/20 12:28:10;;;;;;;1.88;0.70;;;23.30;99.90;;;;;;5050815;28;20119;-49
2023/09/20 12:30:37;;;;;;;2.58;1.00;;;23.10;99.90;;;;;;5050426;28;20104;-49
2023/09/20 12:33:03;;;;;;;2.47;0.77;;;23.00;99.90;;;;;;5050806;28;20501;-53
2023/09/20 12:35:30;;;;;;;1.85;0.90;;;23.00;99.90;;;;;;5050719;28;20025;-51
2023/09/20 12:37:56;;;;;;;1.77;0.90;;;22.90;99.90;;;;;;5050540;28;20037;-51
2023/09/20 12:40:24;;;;;;;4.18;1.05;;;22.90;99.90;;;;;;5050340;28;20048;-49
2023/09/20 12:42:50;;;;;;;3.28;1.13;;;23.00;99.90;;;;;;5051059;28;20112;-48
2023/09/20 12:45:16;;;;;;;2.13;0.98;;;22.90;99.90;;;;;;5050595;28;20123;-49
2023/09/20 12:47:42;;;;;;;1.40;0.68;;;22.90;99.90;;;;;;5050485;28;20048;-51
2023/09/20 12:50:14;;;;;;;1.55;0.80;;;22.90;99.90;;;;;;5050564;28;20370;-53
2023/09/20 12:52:46;;;;;;;2.47;0.80;;;22.90;99.90;;;;;;5050426;28;20040;-49
2023/09/20 12:55:13;;;;;;;2.45;0.88;;;22.90;99.90;;;;;;5050648;28;20028;-52
2023/09/20 12:57:40;;;;;;;5.15;1.17;;;23.00;99.90;;;;;;5050271;28;20043;-51
2023/09/20 13:00:08;;;;;;;2.95;1.50;;;22.90;99.90;;;;;;5050020;28;20098;-51
2023/09/20 13:02:34;;;;;;;4.38;1.17;;;22.90;99.90;;;;;;5050431;28;20040;-48
2023/09/20 13:04:59;;;;;;;2.67;0.73;;;23.00;99.90;;;;;;5050297;28;20396;-48
2023/09/20 13:07:29;;;;;;;3.25;1.27;;;23.00;99.90;;;;;;5048858;28;20037;-50
2023/09/20 13:09:57;;;;;;;2.35;0.90;;;23.00;99.90;;;;;;5049459;28;20043;-51
2023/09/20 13:12:23;;;;;;;2.33;0.93;;;23.00;99.90;;;;;;5050395;28;20029;-50
2023/09/20 13:14:49;;;;;;;3.05;0.98;;;23.00;99.90;;;;;;5050193;28;20029;-49
2023/09/20 13:17:15;;;;;;;1.73;0.75;;;23.00;99.90;;;;;;5050577;28;20029;-48
2023/09/20 13:19:41;;;;;;;4.38;1.00;;;23.00;99.90;;;;;;5050167;28;20043;-48
2023/09/20 13:22:08;;;;;;;2.38;0.88;;;23.10;99.90;;;;;;5050271;28;20063;-48
2023/09/20 13:24:35;;;;;;;2.35;0.77;;;23.20;99.90;;;;;;5049971;28;20397;-51
2023/09/20 13:27:03;;;;;;;2.17;0.90;;;23.30;99.90;;;;;;5050180;28;20044;-51
2023/09/20 13:29:29;;;;;;;2.97;1.00;;;23.40;99.90;;;;;;5049500;28;20458;-50
2023/09/20 13:31:55;;;;;;;2.20;1.17;;;23.40;99.90;;;;;;5050174;28;20074;-49
2023/09/20 13:34:21;;;;;;;2.20;1.10;;;23.50;99.90;;;;;;5052366;28;20033;-49